sensor_id;sensor_type;location;lat;lon;timestamp;pressure;altitude;pressure_sealevel;temperature;humidity
32761;BME280;19126;47.472;7.850;2023-07-13T00:00:25;96677.69;;;18.83;88.91
32761;BME280;19126;47.472;7.850;2023-07-13T00:02:53;96686.94;;;18.80;88.11
32761;BME280;19126;47.472;7.850;2023-07-13T00:05:21;96675.25;;;18.81;87.24
32761;BME280;19126;47.472;7.850;2023-07-13T00:07:49;96685.78;;;18.76;87.82
32761;BME280;19126;47.472;7.850;2023-07-13T00:10:18;96678.81;;;18.75;88.60
32761;BME280;19126;47.472;7.850;2023-07-13T00:12:46;96674.53;;;18.74;88.30
32761;BME280;19126;47.472;7.850;2023-07-13T00:15:19;96669.66;;;18.71;88.38
32761;BME280;19126;47.472;7.850;2023-07-13T00:17:48;96672.31;;;18.71;87.48
32761;BME280;19126;47.472;7.850;2023-07-13T00:20:16;96666.41;;;18.69;86.22
32761;BME280;19126;47.472;7.850;2023-07-13T00:22:44;96667.44;;;18.68;86.30
32761;BME280;19126;47.472;7.850;2023-07-13T00:25:11;96665.00;;;18.66;86.45
32761;BME280;19126;47.472;7.850;2023-07-13T00:27:43;96664.41;;;18.64;86.62
32761;BME280;19126;47.472;7.850;2023-07-13T00:30:11;96657.25;;;18.65;88.52
32761;BME280;19126;47.472;7.850;2023-07-13T00:32:39;96664.34;;;18.71;90.11
32761;BME280;19126;47.472;7.850;2023-07-13T00:35:08;96665.31;;;18.58;90.52
32761;BME280;19126;47.472;7.850;2023-07-13T00:37:35;96657.78;;;18.55;89.08
32761;BME280;19126;47.472;7.850;2023-07-13T00:40:04;96668.41;;;18.55;88.76
32761;BME280;19126;47.472;7.850;2023-07-13T00:42:32;96664.34;;;18.52;87.46
32761;BME280;19126;47.472;7.850;2023-07-13T00:45:05;96668.72;;;18.47;86.50
32761;BME280;19126;47.472;7.850;2023-07-13T00:47:33;96671.84;;;18.43;83.42
32761;BME280;19126;47.472;7.850;2023-07-13T00:50:00;96671.00;;;18.43;81.18
32761;BME280;19126;47.472;7.850;2023-07-13T00:52:29;96668.13;;;18.44;80.56
32761;BME280;19126;47.472;7.850;2023-07-13T00:54:57;96678.63;;;18.39;79.34
32761;BME280;19126;47.472;7.850;2023-07-13T00:57:26;96697.31;;;18.33;78.98
32761;BME280;19126;47.472;7.850;2023-07-13T00:59:58;96682.63;;;18.30;78.74
32761;BME280;19126;47.472;7.850;2023-07-13T01:02:29;96685.44;;;18.35;79.39
32761;BME280;19126;47.472;7.850;2023-07-13T01:04:56;96689.56;;;18.31;79.57
32761;BME280;19126;47.472;7.850;2023-07-13T01:07:24;96681.50;;;18.19;79.38
32761;BME280;19126;47.472;7.850;2023-07-13T01:09:51;96689.56;;;18.12;77.17
32761;BME280;19126;47.472;7.850;2023-07-13T01:12:19;96687.34;;;18.09;74.95
32761;BME280;19126;47.472;7.850;2023-07-13T01:14:46;96683.06;;;18.08;74.19
32761;BME280;19126;47.472;7.850;2023-07-13T01:17:20;96678.53;;;18.09;73.34
32761;BME280;19126;47.472;7.850;2023-07-13T01:19:49;96680.19;;;18.10;72.62
32761;BME280;19126;47.472;7.850;2023-07-13T01:22:19;96675.09;;;18.08;72.05
32761;BME280;19126;47.472;7.850;2023-07-13T01:24:53;96674.13;;;18.02;71.36
32761;BME280;19126;47.472;7.850;2023-07-13T01:27:24;96678.03;;;18.00;69.87
32761;BME280;19126;47.472;7.850;2023-07-13T01:29:53;96669.28;;;17.93;68.98
32761;BME280;19126;47.472;7.850;2023-07-13T01:32:28;96680.38;;;17.90;67.70
32761;BME280;19126;47.472;7.850;2023-07-13T01:34:57;96686.56;;;17.83;65.91
32761;BME280;19126;47.472;7.850;2023-07-13T01:37:26;96690.00;;;17.84;63.93
32761;BME280;19126;47.472;7.850;2023-07-13T01:39:59;96684.69;;;17.84;62.33
32761;BME280;19126;47.472;7.850;2023-07-13T01:42:26;96686.13;;;17.86;59.93
32761;BME280;19126;47.472;7.850;2023-07-13T01:44:55;96684.06;;;17.89;58.68
32761;BME280;19126;47.472;7.850;2023-07-13T01:47:22;96683.81;;;17.90;58.58
32761;BME280;19126;47.472;7.850;2023-07-13T01:49:52;96682.00;;;17.91;58.17
32761;BME280;19126;47.472;7.850;2023-07-13T01:52:19;96678.66;;;17.95;59.63
32761;BME280;19126;47.472;7.850;2023-07-13T01:54:48;96679.84;;;17.99;61.74
32761;BME280;19126;47.472;7.850;2023-07-13T01:57:15;96678.41;;;18.04;65.15
32761;BME280;19126;47.472;7.850;2023-07-13T01:59:42;96674.59;;;17.93;67.92
32761;BME280;19126;47.472;7.850;2023-07-13T02:02:10;96675.50;;;17.86;69.87
32761;BME280;19126;47.472;7.850;2023-07-13T02:04:37;96675.34;;;17.81;70.65
32761;BME280;19126;47.472;7.850;2023-07-13T02:07:05;96674.59;;;17.74;70.09
32761;BME280;19126;47.472;7.850;2023-07-13T02:09:32;96668.88;;;17.70;68.21
32761;BME280;19126;47.472;7.850;2023-07-13T02:12:01;96668.69;;;17.72;66.94
32761;BME280;19126;47.472;7.850;2023-07-13T02:14:28;96665.19;;;17.71;65.13
32761;BME280;19126;47.472;7.850;2023-07-13T02:16:56;96667.84;;;17.71;63.23
32761;BME280;19126;47.472;7.850;2023-07-13T02:19:23;96667.84;;;17.71;61.26
32761;BME280;19126;47.472;7.850;2023-07-13T02:21:51;96672.13;;;17.72;60.03
32761;BME280;19126;47.472;7.850;2023-07-13T02:24:18;96670.06;;;17.75;59.17
32761;BME280;19126;47.472;7.850;2023-07-13T02:26:47;96669.03;;;17.76;59.01
32761;BME280;19126;47.472;7.850;2023-07-13T02:29:16;96673.56;;;17.75;58.46
32761;BME280;19126;47.472;7.850;2023-07-13T02:31:43;96662.91;;;17.75;58.42
32761;BME280;19126;47.472;7.850;2023-07-13T02:34:10;96664.31;;;17.78;57.79
32761;BME280;19126;47.472;7.850;2023-07-13T02:36:38;96656.94;;;17.80;57.86
32761;BME280;19126;47.472;7.850;2023-07-13T02:39:06;96656.56;;;17.76;60.33
32761;BME280;19126;47.472;7.850;2023-07-13T02:41:33;96654.13;;;17.75;61.27
32761;BME280;19126;47.472;7.850;2023-07-13T02:44:02;96658.25;;;17.70;62.71
32761;BME280;19126;47.472;7.850;2023-07-13T02:46:31;96659.06;;;17.71;63.54
32761;BME280;19126;47.472;7.850;2023-07-13T02:48:58;96659.88;;;17.71;63.15
32761;BME280;19126;47.472;7.850;2023-07-13T02:51:26;96658.84;;;17.72;64.09
32761;BME280;19126;47.472;7.850;2023-07-13T02:53:54;96655.59;;;17.70;64.06
32761;BME280;19126;47.472;7.850;2023-07-13T02:56:25;96670.94;;;17.68;62.69
32761;BME280;19126;47.472;7.850;2023-07-13T02:58:53;96662.97;;;17.68;61.01
32761;BME280;19126;47.472;7.850;2023-07-13T03:01:22;96663.78;;;17.69;59.38
32761;BME280;19126;47.472;7.850;2023-07-13T03:03:51;96662.78;;;17.70;59.36
32761;BME280;19126;47.472;7.850;2023-07-13T03:06:19;96670.94;;;17.68;59.95
32761;BME280;19126;47.472;7.850;2023-07-13T03:08:47;96662.97;;;17.68;59.48
32761;BME280;19126;47.472;7.850;2023-07-13T03:11:19;96672.81;;;17.68;58.19
32761;BME280;19126;47.472;7.850;2023-07-13T03:13:47;96669.31;;;17.67;57.10
32761;BME280;19126;47.472;7.850;2023-07-13T03:16:15;96673.00;;;17.66;55.94
32761;BME280;19126;47.472;7.850;2023-07-13T03:18:43;96669.47;;;17.72;55.30
32761;BME280;19126;47.472;7.850;2023-07-13T03:21:12;96672.84;;;17.61;55.81
32761;BME280;19126;47.472;7.850;2023-07-13T03:23:40;96674.09;;;17.58;55.78
32761;BME280;19126;47.472;7.850;2023-07-13T03:26:10;96666.13;;;17.58;54.26
32761;BME280;19126;47.472;7.850;2023-07-13T03:28:39;96669.22;;;17.55;54.04
32761;BME280;19126;47.472;7.850;2023-07-13T03:31:09;96669.22;;;17.55;54.32
32761;BME280;19126;47.472;7.850;2023-07-13T03:33:37;96666.78;;;17.54;53.48
32761;BME280;19126;47.472;7.850;2023-07-13T03:36:07;96666.25;;;17.45;52.26
32761;BME280;19126;47.472;7.850;2023-07-13T03:38:36;96665.44;;;17.45;51.07
32761;BME280;19126;47.472;7.850;2023-07-13T03:41:04;96675.00;;;17.46;49.32
32761;BME280;19126;47.472;7.850;2023-07-13T03:43:31;96672.97;;;17.48;47.56
32761;BME280;19126;47.472;7.850;2023-07-13T03:45:58;96674.81;;;17.47;46.40
32761;BME280;19126;47.472;7.850;2023-07-13T03:48:25;96672.34;;;17.46;45.00
32761;BME280;19126;47.472;7.850;2023-07-13T03:50:53;96677.47;;;17.47;44.60
32761;BME280;19126;47.472;7.850;2023-07-13T03:53:20;96681.75;;;17.48;44.18
32761;BME280;19126;47.472;7.850;2023-07-13T03:55:49;96681.75;;;17.48;44.87
32761;BME280;19126;47.472;7.850;2023-07-13T03:58:33;96676.44;;;17.48;44.66
32761;BME280;19126;47.472;7.850;2023-07-13T04:01:01;96676.63;;;17.47;44.86
32761;BME280;19126;47.472;7.850;2023-07-13T04:03:29;96672.97;;;17.48;44.03
32761;BME280;19126;47.472;7.850;2023-07-13T04:05:58;96671.13;;;17.48;43.88
32761;BME280;19126;47.472;7.850;2023-07-13T04:08:27;96672.53;;;17.51;43.41
32761;BME280;19126;47.472;7.850;2023-07-13T04:10:55;96680.28;;;17.52;43.42
32761;BME280;19126;47.472;7.850;2023-07-13T04:13:23;96684.34;;;17.55;43.27
32761;BME280;19126;47.472;7.850;2023-07-13T04:15:51;96683.69;;;17.60;44.23
32761;BME280;19126;47.472;7.850;2023-07-13T04:18:19;96683.47;;;17.61;44.74
32761;BME280;19126;47.472;7.850;2023-07-13T04:20:47;96688.19;;;17.59;46.10
32761;BME280;19126;47.472;7.850;2023-07-13T04:23:15;96696.16;;;17.59;45.96
32761;BME280;19126;47.472;7.850;2023-07-13T04:25:44;96698.00;;;17.58;45.91
32761;BME280;19126;47.472;7.850;2023-07-13T04:28:13;96694.69;;;17.63;45.32
32761;BME280;19126;47.472;7.850;2023-07-13T04:30:40;96701.63;;;17.64;44.82
32761;BME280;19126;47.472;7.850;2023-07-13T04:33:07;96708.38;;;17.67;44.07
32761;BME280;19126;47.472;7.850;2023-07-13T04:35:35;96706.06;;;17.70;43.17
32761;BME280;19126;47.472;7.850;2023-07-13T04:38:03;96705.44;;;17.75;43.29
32761;BME280;19126;47.472;7.850;2023-07-13T04:40:31;96723.44;;;17.73;45.33
32761;BME280;19126;47.472;7.850;2023-07-13T04:42:59;96722.59;;;17.72;44.49
32761;BME280;19126;47.472;7.850;2023-07-13T04:45:27;96723.19;;;17.75;43.51
32761;BME280;19126;47.472;7.850;2023-07-13T04:47:55;96728.09;;;17.78;43.88
32761;BME280;19126;47.472;7.850;2023-07-13T04:50:22;96720.34;;;17.76;43.74
32761;BME280;19126;47.472;7.850;2023-07-13T04:52:50;96731.56;;;17.78;43.99
32761;BME280;19126;47.472;7.850;2023-07-13T04:55:18;96735.03;;;17.79;44.37
32761;BME280;19126;47.472;7.850;2023-07-13T04:57:47;96743.81;;;17.79;44.22
32761;BME280;19126;47.472;7.850;2023-07-13T05:00:15;96739.09;;;17.81;44.76
32761;BME280;19126;47.472;7.850;2023-07-13T05:02:45;96740.13;;;17.80;44.53
32761;BME280;19126;47.472;7.850;2023-07-13T05:05:13;96749.91;;;17.86;44.78
32761;BME280;19126;47.472;7.850;2023-07-13T05:07:40;96746.81;;;17.90;45.76
32761;BME280;19126;47.472;7.850;2023-07-13T05:10:09;96746.53;;;17.98;46.73
32761;BME280;19126;47.472;7.850;2023-07-13T05:12:36;96749.97;;;18.05;51.31
32761;BME280;19126;47.472;7.850;2023-07-13T05:15:05;96749.81;;;18.00;54.83
32761;BME280;19126;47.472;7.850;2023-07-13T05:17:32;96749.38;;;18.03;56.43
32761;BME280;19126;47.472;7.850;2023-07-13T05:20:01;96752.09;;;18.15;58.83
32761;BME280;19126;47.472;7.850;2023-07-13T05:22:28;96747.81;;;18.14;62.19
32761;BME280;19126;47.472;7.850;2023-07-13T05:24:56;96754.41;;;18.11;64.60
32761;BME280;19126;47.472;7.850;2023-07-13T05:27:23;96763.19;;;18.12;66.21
32761;BME280;19126;47.472;7.850;2023-07-13T05:29:50;96764.59;;;18.14;67.75
32761;BME280;19126;47.472;7.850;2023-07-13T05:32:18;96763.34;;;18.17;67.96
32761;BME280;19126;47.472;7.850;2023-07-13T05:34:45;96764.75;;;18.20;67.77
32761;BME280;19126;47.472;7.850;2023-07-13T05:37:14;96768.38;;;18.25;69.40
32761;BME280;19126;47.472;7.850;2023-07-13T05:39:41;96777.38;;;18.24;73.79
32761;BME280;19126;47.472;7.850;2023-07-13T05:42:09;96785.16;;;18.26;77.11
32761;BME280;19126;47.472;7.850;2023-07-13T05:44:36;96786.94;;;18.32;78.09
32761;BME280;19126;47.472;7.850;2023-07-13T05:47:04;96789.22;;;18.47;78.79
32761;BME280;19126;47.472;7.850;2023-07-13T05:49:32;96798.16;;;18.34;80.24
32761;BME280;19126;47.472;7.850;2023-07-13T05:51:59;96791.56;;;18.37;78.39
32761;BME280;19126;47.472;7.850;2023-07-13T05:54:28;96792.09;;;18.27;80.84
32761;BME280;19126;47.472;7.850;2023-07-13T05:56:55;96799.09;;;18.21;79.59
32761;BME280;19126;47.472;7.850;2023-07-13T05:59:23;96803.81;;;18.19;77.03
32761;BME280;19126;47.472;7.850;2023-07-13T06:01:51;96801.81;;;18.14;81.36
32761;BME280;19126;47.472;7.850;2023-07-13T06:04:19;96794.03;;;18.13;100.00
32761;BME280;19126;47.472;7.850;2023-07-13T06:06:46;96791.53;;;18.18;100.00
32761;BME280;19126;47.472;7.850;2023-07-13T06:09:13;96801.47;;;18.29;100.00
32761;BME280;19126;47.472;7.850;2023-07-13T06:11:42;96803.25;;;18.36;100.00
32761;BME280;19126;47.472;7.850;2023-07-13T06:14:11;96804.22;;;18.41;100.00
32761;BME280;19126;47.472;7.850;2023-07-13T06:16:39;96809.69;;;18.47;100.00
32761;BME280;19126;47.472;7.850;2023-07-13T06:19:07;96810.66;;;18.52;100.00
32761;BME280;19126;47.472;7.850;2023-07-13T06:21:34;96807.94;;;18.59;100.00
32761;BME280;19126;47.472;7.850;2023-07-13T06:24:02;96819.13;;;18.68;100.00
32761;BME280;19126;47.472;7.850;2023-07-13T06:26:29;96823.84;;;18.84;100.00
32761;BME280;19126;47.472;7.850;2023-07-13T06:28:59;96824.47;;;19.05;100.00
32761;BME280;19126;47.472;7.850;2023-07-13T06:31:26;96822.81;;;19.23;100.00
32761;BME280;19126;47.472;7.850;2023-07-13T06:33:53;96815.25;;;19.50;100.00
32761;BME280;19126;47.472;7.850;2023-07-13T06:36:21;96818.31;;;19.66;100.00
32761;BME280;19126;47.472;7.850;2023-07-13T06:38:48;96820.53;;;19.69;98.50
32761;BME280;19126;47.472;7.850;2023-07-13T06:41:15;96820.19;;;19.65;97.21
32761;BME280;19126;47.472;7.850;2023-07-13T06:43:43;96838.59;;;19.67;95.37
32761;BME280;19126;47.472;7.850;2023-07-13T06:46:12;96855.53;;;19.72;98.32
32761;BME280;19126;47.472;7.850;2023-07-13T06:48:39;96858.56;;;19.76;98.48
32761;BME280;19126;47.472;7.850;2023-07-13T06:51:06;96851.59;;;19.75;90.78
32761;BME280;19126;47.472;7.850;2023-07-13T06:53:34;96852.28;;;19.70;91.72
32761;BME280;19126;47.472;7.850;2023-07-13T06:56:01;96849.63;;;19.70;88.40
32761;BME280;19126;47.472;7.850;2023-07-13T06:58:28;96839.16;;;19.57;91.02
32761;BME280;19126;47.472;7.850;2023-07-13T07:00:56;96844.03;;;19.60;87.71
32761;BME280;19126;47.472;7.850;2023-07-13T07:03:24;96851.56;;;19.63;93.46
32761;BME280;19126;47.472;7.850;2023-07-13T07:05:52;96863.03;;;19.63;97.00
32761;BME280;19126;47.472;7.850;2023-07-13T07:08:19;96858.75;;;19.62;98.82
32761;BME280;19126;47.472;7.850;2023-07-13T07:10:46;96857.50;;;19.65;89.84
32761;BME280;19126;47.472;7.850;2023-07-13T07:13:17;96856.44;;;19.66;84.81
32761;BME280;19126;47.472;7.850;2023-07-13T07:15:44;96860.75;;;19.67;89.54
32761;BME280;19126;47.472;7.850;2023-07-13T07:18:12;96863.31;;;19.74;95.25
32761;BME280;19126;47.472;7.850;2023-07-13T07:20:40;96866.81;;;19.86;95.11
32761;BME280;19126;47.472;7.850;2023-07-13T07:23:07;96855.09;;;19.87;93.33
32761;BME280;19126;47.472;7.850;2023-07-13T07:25:35;96840.69;;;19.95;93.24
32761;BME280;19126;47.472;7.850;2023-07-13T07:28:08;96841.63;;;20.01;89.05
32761;BME280;19126;47.472;7.850;2023-07-13T07:30:35;96848.38;;;20.15;89.98
32761;BME280;19126;47.472;7.850;2023-07-13T07:33:03;96845.84;;;20.32;87.69
32761;BME280;19126;47.472;7.850;2023-07-13T07:35:31;96852.56;;;20.47;87.78
32761;BME280;19126;47.472;7.850;2023-07-13T07:37:59;96862.22;;;20.84;86.90
32761;BME280;19126;47.472;7.850;2023-07-13T07:40:27;96843.41;;;20.78;83.77
32761;BME280;19126;47.472;7.850;2023-07-13T07:42:54;96842.81;;;20.88;84.54
32761;BME280;19126;47.472;7.850;2023-07-13T07:45:21;96851.19;;;20.92;83.38
32761;BME280;19126;47.472;7.850;2023-07-13T07:47:49;96860.19;;;21.03;87.24
32761;BME280;19126;47.472;7.850;2023-07-13T07:50:17;96861.56;;;21.17;84.08
32761;BME280;19126;47.472;7.850;2023-07-13T07:52:45;96861.53;;;21.29;83.02
32761;BME280;19126;47.472;7.850;2023-07-13T07:55:14;96867.25;;;21.62;83.50
32761;BME280;19126;47.472;7.850;2023-07-13T07:57:42;96867.06;;;21.80;81.79
32761;BME280;19126;47.472;7.850;2023-07-13T08:00:10;96872.13;;;22.11;80.19
32761;BME280;19126;47.472;7.850;2023-07-13T08:02:38;96875.84;;;22.10;78.22
32761;BME280;19126;47.472;7.850;2023-07-13T08:05:07;96877.78;;;22.32;80.09
32761;BME280;19126;47.472;7.850;2023-07-13T08:07:36;96872.38;;;22.44;78.31
32761;BME280;19126;47.472;7.850;2023-07-13T08:10:04;96882.69;;;22.69;77.16
32761;BME280;19126;47.472;7.850;2023-07-13T08:12:35;96873.53;;;22.65;76.07
32761;BME280;19126;47.472;7.850;2023-07-13T08:15:04;96867.19;;;22.71;79.07
32761;BME280;19126;47.472;7.850;2023-07-13T08:17:32;96877.84;;;22.88;78.42
32761;BME280;19126;47.472;7.850;2023-07-13T08:19:59;96879.38;;;23.01;72.92
32761;BME280;19126;47.472;7.850;2023-07-13T08:22:27;96877.31;;;23.08;73.81
32761;BME280;19126;47.472;7.850;2023-07-13T08:24:54;96877.44;;;23.19;75.61
32761;BME280;19126;47.472;7.850;2023-07-13T08:27:22;96881.25;;;23.45;70.92
32761;BME280;19126;47.472;7.850;2023-07-13T08:29:52;96873.22;;;23.45;70.24
32761;BME280;19126;47.472;7.850;2023-07-13T08:32:20;96877.72;;;23.39;68.09
32761;BME280;19126;47.472;7.850;2023-07-13T08:34:48;96873.59;;;23.32;71.33
32761;BME280;19126;47.472;7.850;2023-07-13T08:37:16;96874.47;;;23.37;70.23
32761;BME280;19126;47.472;7.850;2023-07-13T08:39:44;96873.69;;;23.64;73.13
32761;BME280;19126;47.472;7.850;2023-07-13T08:42:20;96870.88;;;24.04;67.96
32761;BME280;19126;47.472;7.850;2023-07-13T08:44:57;96878.34;;;24.29;67.06
32761;BME280;19126;47.472;7.850;2023-07-13T08:47:28;96874.47;;;24.14;62.21
32761;BME280;19126;47.472;7.850;2023-07-13T08:49:57;96866.00;;;24.28;63.68
32761;BME280;19126;47.472;7.850;2023-07-13T08:52:32;96869.81;;;24.37;62.83
32761;BME280;19126;47.472;7.850;2023-07-13T08:55:05;96861.53;;;24.82;65.37
32761;BME280;19126;47.472;7.850;2023-07-13T08:57:37;96860.75;;;24.92;62.01
32761;BME280;19126;47.472;7.850;2023-07-13T09:00:13;96855.78;;;24.68;62.02
32761;BME280;19126;47.472;7.850;2023-07-13T09:02:45;96870.22;;;24.19;66.96
32761;BME280;19126;47.472;7.850;2023-07-13T09:05:22;96879.25;;;24.07;66.32
32761;BME280;19126;47.472;7.850;2023-07-13T09:08:12;96882.63;;;24.25;68.24
32761;BME280;19126;47.472;7.850;2023-07-13T09:10:46;96881.34;;;24.38;63.19
32761;BME280;19126;47.472;7.850;2023-07-13T09:13:31;96868.88;;;24.54;61.73
32761;BME280;19126;47.472;7.850;2023-07-13T09:16:04;96877.66;;;24.82;65.23
32761;BME280;19126;47.472;7.850;2023-07-13T09:18:37;96878.00;;;25.59;63.73
32761;BME280;19126;47.472;7.850;2023-07-13T09:21:10;96884.56;;;26.15;59.03
32761;BME280;19126;47.472;7.850;2023-07-13T09:23:39;96879.44;;;26.71;61.05
32761;BME280;19126;47.472;7.850;2023-07-13T09:26:13;96877.53;;;26.97;55.58
32761;BME280;19126;47.472;7.850;2023-07-13T09:28:45;96873.41;;;27.10;56.49
32761;BME280;19126;47.472;7.850;2023-07-13T09:31:19;96874.47;;;27.19;55.61
32761;BME280;19126;47.472;7.850;2023-07-13T09:33:47;96874.78;;;27.13;52.39
32761;BME280;19126;47.472;7.850;2023-07-13T09:36:23;96880.81;;;26.53;51.17
32761;BME280;19126;47.472;7.850;2023-07-13T09:38:59;96868.97;;;26.54;55.21
32761;BME280;19126;47.472;7.850;2023-07-13T09:41:39;96874.03;;;26.86;56.65
32761;BME280;19126;47.472;7.850;2023-07-13T09:44:10;96867.00;;;26.96;49.27
32761;BME280;19126;47.472;7.850;2023-07-13T09:46:44;96865.94;;;26.81;50.83
32761;BME280;19126;47.472;7.850;2023-07-13T09:49:12;96868.88;;;27.05;53.79
32761;BME280;19126;47.472;7.850;2023-07-13T09:51:41;96884.00;;;26.96;53.76
32761;BME280;19126;47.472;7.850;2023-07-13T09:54:24;96864.31;;;26.75;52.18
32761;BME280;19126;47.472;7.850;2023-07-13T09:56:55;96867.84;;;26.81;54.34
32761;BME280;19126;47.472;7.850;2023-07-13T09:59:28;96868.25;;;27.24;53.64
32761;BME280;19126;47.472;7.850;2023-07-13T10:01:57;96872.13;;;27.02;51.64
32761;BME280;19126;47.472;7.850;2023-07-13T10:04:30;96870.25;;;26.92;52.51
32761;BME280;19126;47.472;7.850;2023-07-13T10:07:06;96875.56;;;27.13;49.12
32761;BME280;19126;47.472;7.850;2023-07-13T10:09:34;96879.84;;;27.25;56.54
32761;BME280;19126;47.472;7.850;2023-07-13T10:12:02;96875.84;;;27.17;54.06
32761;BME280;19126;47.472;7.850;2023-07-13T10:14:30;96867.84;;;26.91;55.74
32761;BME280;19126;47.472;7.850;2023-07-13T10:17:01;96869.69;;;26.96;54.40
32761;BME280;19126;47.472;7.850;2023-07-13T10:19:32;96875.47;;;27.34;58.30
32761;BME280;19126;47.472;7.850;2023-07-13T10:22:12;96884.25;;;27.71;54.62
32761;BME280;19126;47.472;7.850;2023-07-13T10:24:41;96887.91;;;27.90;52.78
32761;BME280;19126;47.472;7.850;2023-07-13T10:27:16;96885.22;;;28.30;53.77
32761;BME280;19126;47.472;7.850;2023-07-13T10:29:47;96878.06;;;28.45;50.05
32761;BME280;19126;47.472;7.850;2023-07-13T10:32:21;96884.97;;;28.27;50.83
32761;BME280;19126;47.472;7.850;2023-07-13T10:34:49;96888.34;;;28.03;46.48
32761;BME280;19126;47.472;7.850;2023-07-13T10:37:22;96892.41;;;27.55;49.64
32761;BME280;19126;47.472;7.850;2023-07-13T10:39:52;96891.06;;;27.53;49.41
32761;BME280;19126;47.472;7.850;2023-07-13T10:42:28;96888.63;;;27.56;49.62
32761;BME280;19126;47.472;7.850;2023-07-13T10:44:56;96883.34;;;27.86;51.88
32761;BME280;19126;47.472;7.850;2023-07-13T10:47:25;96883.47;;;28.05;49.96
32761;BME280;19126;47.472;7.850;2023-07-13T10:49:57;96881.47;;;28.26;50.33
32761;BME280;19126;47.472;7.850;2023-07-13T10:52:43;96886.34;;;28.54;50.37
32761;BME280;19126;47.472;7.850;2023-07-13T10:55:34;96885.78;;;29.10;48.75
32761;BME280;19126;47.472;7.850;2023-07-13T10:58:12;96883.41;;;29.52;46.65
32761;BME280;19126;47.472;7.850;2023-07-13T11:00:53;96880.56;;;29.63;45.40
32761;BME280;19126;47.472;7.850;2023-07-13T11:03:27;96872.66;;;29.86;45.29
32761;BME280;19126;47.472;7.850;2023-07-13T11:06:10;96870.34;;;29.60;42.92
32761;BME280;19126;47.472;7.850;2023-07-13T11:08:51;96864.94;;;29.79;44.92
32761;BME280;19126;47.472;7.850;2023-07-13T11:11:37;96868.38;;;30.04;43.32
32761;BME280;19126;47.472;7.850;2023-07-13T11:16:52;96867.63;;;29.60;46.40
32761;BME280;19126;47.472;7.850;2023-07-13T11:19:40;96856.50;;;29.42;46.56
32761;BME280;19126;47.472;7.850;2023-07-13T11:22:21;96865.59;;;28.49;49.75
32761;BME280;19126;47.472;7.850;2023-07-13T11:24:58;96877.50;;;28.13;50.95
32761;BME280;19126;47.472;7.850;2023-07-13T11:27:41;96879.78;;;27.40;50.81
32761;BME280;19126;47.472;7.850;2023-07-13T11:30:25;96876.72;;;26.81;53.30
32761;BME280;19126;47.472;7.850;2023-07-13T11:33:15;96870.03;;;26.47;54.85
32761;BME280;19126;47.472;7.850;2023-07-13T11:35:57;96862.78;;;26.38;54.48
32761;BME280;19126;47.472;7.850;2023-07-13T11:38:33;96854.13;;;25.99;54.65
32761;BME280;19126;47.472;7.850;2023-07-13T11:41:05;96852.25;;;26.36;53.41
32761;BME280;19126;47.472;7.850;2023-07-13T11:43:33;96848.09;;;27.01;55.40
32761;BME280;19126;47.472;7.850;2023-07-13T11:46:15;96853.03;;;27.54;50.02
32761;BME280;19126;47.472;7.850;2023-07-13T11:48:42;96858.81;;;27.77;49.06
32761;BME280;19126;47.472;7.850;2023-07-13T11:51:21;96843.75;;;28.16;48.84
32761;BME280;19126;47.472;7.850;2023-07-13T11:53:52;96849.97;;;28.70;54.12
32761;BME280;19126;47.472;7.850;2023-07-13T11:56:20;96867.16;;;29.09;48.96
32761;BME280;19126;47.472;7.850;2023-07-13T11:58:50;96863.88;;;29.56;49.86
32761;BME280;19126;47.472;7.850;2023-07-13T12:01:22;96858.69;;;29.40;44.00
32761;BME280;19126;47.472;7.850;2023-07-13T12:03:50;96851.22;;;28.83;43.10
32761;BME280;19126;47.472;7.850;2023-07-13T12:06:27;96850.94;;;28.26;46.74
32761;BME280;19126;47.472;7.850;2023-07-13T12:08:57;96857.75;;;27.78;50.12
32761;BME280;19126;47.472;7.850;2023-07-13T12:11:25;96860.53;;;27.62;50.33
32761;BME280;19126;47.472;7.850;2023-07-13T12:13:53;96855.06;;;27.73;47.89
32761;BME280;19126;47.472;7.850;2023-07-13T12:16:28;96858.84;;;28.17;47.75
32761;BME280;19126;47.472;7.850;2023-07-13T12:18:56;96856.06;;;28.27;44.08
32761;BME280;19126;47.472;7.850;2023-07-13T12:21:31;96849.47;;;28.39;45.67
32761;BME280;19126;47.472;7.850;2023-07-13T12:23:59;96863.06;;;28.58;45.72
32761;BME280;19126;47.472;7.850;2023-07-13T12:26:29;96849.91;;;28.51;45.57
32761;BME280;19126;47.472;7.850;2023-07-13T12:28:59;96848.66;;;28.03;45.07
32761;BME280;19126;47.472;7.850;2023-07-13T12:31:34;96858.59;;;27.68;45.73
32761;BME280;19126;47.472;7.850;2023-07-13T12:34:07;96849.03;;;27.86;47.55
32761;BME280;19126;47.472;7.850;2023-07-13T12:36:45;96846.75;;;28.04;43.16
32761;BME280;19126;47.472;7.850;2023-07-13T12:39:17;96856.41;;;27.75;45.87
32761;BME280;19126;47.472;7.850;2023-07-13T12:41:46;96857.38;;;27.50;44.01
32761;BME280;19126;47.472;7.850;2023-07-13T12:44:16;96852.63;;;27.21;47.50
32761;BME280;19126;47.472;7.850;2023-07-13T12:46:58;96844.56;;;27.16;45.93
32761;BME280;19126;47.472;7.850;2023-07-13T12:49:31;96844.88;;;26.99;44.85
32761;BME280;19126;47.472;7.850;2023-07-13T12:52:09;96846.81;;;26.93;46.57
32761;BME280;19126;47.472;7.850;2023-07-13T12:54:40;96849.56;;;26.62;43.88
32761;BME280;19126;47.472;7.850;2023-07-13T12:57:15;96839.31;;;26.64;43.65
32761;BME280;19126;47.472;7.850;2023-07-13T12:59:43;96834.13;;;26.94;47.64
32761;BME280;19126;47.472;7.850;2023-07-13T13:02:28;96840.88;;;27.46;48.66
32761;BME280;19126;47.472;7.850;2023-07-13T13:04:57;96848.44;;;27.55;45.63
32761;BME280;19126;47.472;7.850;2023-07-13T13:07:26;96837.41;;;27.46;45.43
32761;BME280;19126;47.472;7.850;2023-07-13T13:09:55;96832.78;;;27.52;45.12
32761;BME280;19126;47.472;7.850;2023-07-13T13:12:23;96839.16;;;27.71;45.59
32761;BME280;19126;47.472;7.850;2023-07-13T13:14:52;96838.56;;;27.79;45.59
32761;BME280;19126;47.472;7.850;2023-07-13T13:17:22;96853.28;;;27.98;45.15